createdAt,value
2018-03-26T00:00:09.156Z,5.44
2018-03-26T00:01:09.156Z,5.43
2018-03-26T00:02:09.147Z,5.43
2018-03-26T00:03:09.142Z,5.46
2018-03-26T00:04:09.137Z,5.47
2018-03-26T00:05:09.132Z,5.52
2018-03-26T00:06:09.137Z,5.44
2018-03-26T00:07:09.124Z,5.36
2018-03-26T00:08:09.120Z,5.38
2018-03-26T00:09:09.115Z,5.43
2018-03-26T00:10:09.113Z,5.47
2018-03-26T00:11:09.106Z,5.54
2018-03-26T00:12:09.100Z,5.55
2018-03-26T00:13:09.096Z,5.64
2018-03-26T00:14:09.093Z,5.59
2018-03-26T00:15:09.089Z,5.73
2018-03-26T00:16:09.083Z,5.76
2018-03-26T00:17:09.080Z,5.87
2018-03-26T00:18:09.075Z,5.94
2018-03-26T00:19:09.082Z,5.94
2018-03-26T00:20:09.065Z,5.94
2018-03-26T00:21:09.070Z,6.01
2018-03-26T00:22:09.057Z,6.06
2018-03-26T00:23:09.053Z,6.02
2018-03-26T00:24:09.049Z,5.97
2018-03-26T00:25:09.044Z,5.95
2018-03-26T00:26:09.040Z,5.97
2018-03-26T00:27:09.090Z,5.94
2018-03-26T00:28:09.031Z,5.94
2018-03-26T00:29:09.031Z,5.91
2018-03-26T00:30:09.024Z,5.97
2018-03-26T00:31:09.020Z,5.91
2018-03-26T00:32:09.014Z,6.01
2018-03-26T00:33:09.009Z,5.92
2018-03-26T00:34:09.006Z,5.84
2018-03-26T00:35:09.003Z,5.79
2018-03-26T00:36:08.996Z,5.69
2018-03-26T00:37:08.993Z,5.58
2018-03-26T00:38:08.989Z,5.56
2018-03-26T00:39:08.984Z,5.52
2018-03-26T00:40:08.980Z,5.51
2018-03-26T00:41:08.986Z,5.44
2018-03-26T00:42:08.974Z,5.49
2018-03-26T00:43:08.968Z,5.55
2018-03-26T00:44:08.962Z,5.55
2018-03-26T00:45:08.958Z,5.51
2018-03-26T00:46:08.955Z,5.36
2018-03-26T00:47:08.951Z,5.31
2018-03-26T00:48:08.946Z,5.23
2018-03-26T00:49:08.942Z,5.04
2018-03-26T00:50:08.938Z,4.97
2018-03-26T00:51:08.933Z,5.01
2018-03-26T00:52:08.931Z,4.87
2018-03-26T00:53:08.926Z,4.74
2018-03-26T00:54:08.921Z,4.83
2018-03-26T00:55:08.917Z,4.83
2018-03-26T00:56:08.910Z,4.74
2018-03-26T00:57:08.913Z,4.87
2018-03-26T00:58:08.901Z,4.74
2018-03-26T00:59:08.896Z,4.86
2018-03-26T01:00:08.894Z,4.87
2018-03-26T01:01:08.887Z,4.79
2018-03-26T01:02:08.884Z,4.95
2018-03-26T01:03:08.879Z,4.95
2018-03-26T01:04:08.874Z,5.04
2018-03-26T01:05:08.871Z,5.12
2018-03-26T01:06:08.865Z,5.28
2018-03-26T01:07:08.863Z,5.18
2018-03-26T01:08:08.855Z,5.26
2018-03-26T01:09:08.851Z,5.29
2018-03-26T01:10:08.847Z,5.26
2018-03-26T01:11:08.842Z,5.29
2018-03-26T01:12:08.838Z,5.33
2018-03-26T01:13:08.833Z,5.22
2018-03-26T01:14:08.829Z,5.16
2018-03-26T01:15:08.825Z,5.25
2018-03-26T01:16:08.823Z,5.25
2018-03-26T01:17:08.815Z,5.26
2018-03-26T01:18:08.811Z,5.18
2018-03-26T01:19:08.806Z,5.13
2018-03-26T01:20:08.802Z,5.00
2018-03-26T01:21:08.796Z,5.07
2018-03-26T01:22:08.793Z,5.01
2018-03-26T01:23:08.791Z,5.10
2018-03-26T01:24:08.782Z,5.12
2018-03-26T01:25:08.778Z,5.18
2018-03-26T01:26:08.775Z,5.16
2018-03-26T01:27:08.770Z,5.25
2018-03-26T01:28:08.764Z,5.26
2018-03-26T01:29:08.761Z,5.16
2018-03-26T01:30:08.755Z,5.18
2018-03-26T01:31:08.750Z,5.28
2018-03-26T01:32:08.746Z,5.28
2018-03-26T01:33:08.739Z,5.31
2018-03-26T01:34:08.737Z,5.25
2018-03-26T01:35:08.733Z,5.31
2018-03-26T01:36:08.732Z,5.31
2018-03-26T01:37:08.725Z,5.20
2018-03-26T01:38:08.719Z,5.16
2018-03-26T01:39:08.714Z,5.13
2018-03-26T01:40:08.709Z,4.97
2018-03-26T01:41:08.705Z,4.90
2018-03-26T01:42:08.700Z,4.94
2018-03-26T01:43:08.695Z,4.89
2018-03-26T01:44:08.690Z,4.75
2018-03-26T01:45:08.688Z,4.66
2018-03-26T01:46:08.684Z,4.61
2018-03-26T01:47:08.678Z,4.57
2018-03-26T01:48:08.673Z,4.57
2018-03-26T01:49:08.667Z,4.68
2018-03-26T01:50:08.663Z,4.74
2018-03-26T01:51:08.658Z,4.74
2018-03-26T01:52:08.653Z,4.66
2018-03-26T01:53:08.647Z,4.67
2018-03-26T01:54:08.643Z,4.64
2018-03-26T01:55:08.639Z,4.63
2018-03-26T01:56:08.637Z,4.64
2018-03-26T01:57:08.628Z,4.53
2018-03-26T01:58:08.632Z,4.63
2018-03-26T01:59:08.620Z,4.70
2018-03-26T02:00:08.613Z,4.61
2018-03-26T02:01:08.608Z,4.68
2018-03-26T02:02:08.604Z,4.78
2018-03-26T02:03:08.599Z,4.82
2018-03-26T02:04:08.594Z,4.78
2018-03-26T02:05:08.588Z,4.92
2018-03-26T02:06:08.585Z,4.82
2018-03-26T02:07:08.578Z,4.95
2018-03-26T02:08:08.576Z,4.86
2018-03-26T02:09:08.568Z,4.87
2018-03-26T02:10:08.564Z,5.02
2018-03-26T02:11:08.559Z,4.98
2018-03-26T02:12:08.554Z,5.04
2018-03-26T02:13:08.548Z,5.04
2018-03-26T02:14:08.545Z,5.13
2018-03-26T02:15:08.540Z,5.08
2018-03-26T02:16:08.539Z,5.04
2018-03-26T02:17:08.529Z,5.02
2018-03-26T02:18:08.525Z,5.04
2018-03-26T02:19:08.519Z,5.05
2018-03-26T02:20:08.514Z,5.00
2018-03-26T02:21:08.509Z,4.87
2018-03-26T02:22:08.505Z,4.90
2018-03-26T02:23:08.499Z,4.84
2018-03-26T02:24:08.495Z,4.82
2018-03-26T02:25:08.491Z,4.84
2018-03-26T02:26:08.484Z,4.87
2018-03-26T02:27:08.481Z,4.89
2018-03-26T02:28:08.476Z,4.86
2018-03-26T02:29:08.470Z,4.83
2018-03-26T02:30:08.469Z,4.86
2018-03-26T02:31:08.462Z,4.90
2018-03-26T02:32:08.458Z,4.90
2018-03-26T02:33:08.450Z,4.84
2018-03-26T02:34:08.446Z,4.86
2018-03-26T02:35:08.448Z,4.87
2018-03-26T02:36:08.436Z,4.78
2018-03-26T02:37:08.430Z,4.86
2018-03-26T02:38:08.439Z,4.89
2018-03-26T02:39:08.428Z,4.92
2018-03-26T02:40:08.416Z,4.82
2018-03-26T02:41:08.489Z,4.95
2018-03-26T02:42:08.407Z,4.74
2018-03-26T02:43:08.402Z,4.79
2018-03-26T02:44:08.397Z,4.83
2018-03-26T02:45:08.392Z,4.86
2018-03-26T02:46:08.386Z,4.82
2018-03-26T02:47:08.381Z,4.75
2018-03-26T02:48:08.376Z,4.84
2018-03-26T02:49:08.370Z,4.83
2018-03-26T02:50:08.371Z,4.86
2018-03-26T02:51:08.366Z,4.90
2018-03-26T02:52:08.356Z,4.84
2018-03-26T02:53:08.357Z,4.89
2018-03-26T02:54:08.356Z,4.83
2018-03-26T02:55:08.342Z,5.02
2018-03-26T02:56:08.337Z,4.95
2018-03-26T02:57:08.333Z,5.05
2018-03-26T02:58:08.330Z,5.08
2018-03-26T02:59:08.325Z,5.29
2018-03-26T03:00:08.315Z,5.29
2018-03-26T03:01:08.311Z,5.29
2018-03-26T03:02:08.306Z,5.28
2018-03-26T03:03:08.300Z,5.28
2018-03-26T03:04:08.295Z,5.20
2018-03-26T03:05:08.295Z,5.22
2018-03-26T03:06:08.286Z,5.16
2018-03-26T03:07:08.282Z,5.15
2018-03-26T03:08:08.275Z,5.18
2018-03-26T03:09:08.271Z,5.20
2018-03-26T03:10:08.266Z,5.20
2018-03-26T03:11:08.267Z,5.25
2018-03-26T03:12:08.256Z,5.26
2018-03-26T03:13:08.251Z,5.25
2018-03-26T03:14:08.246Z,5.31
2018-03-26T03:15:08.242Z,5.34
2018-03-26T03:16:08.236Z,5.36
2018-03-26T03:17:08.231Z,5.31
2018-03-26T03:18:08.227Z,5.28
2018-03-26T03:19:08.223Z,5.25
2018-03-26T03:20:08.217Z,5.23
2018-03-26T03:21:08.212Z,5.29
2018-03-26T03:22:08.208Z,5.20
2018-03-26T03:23:08.203Z,5.26
2018-03-26T03:24:08.199Z,5.28
2018-03-26T03:25:08.193Z,5.33
2018-03-26T03:26:08.189Z,5.29
2018-03-26T03:27:08.183Z,5.12
2018-03-26T03:28:08.181Z,5.08
2018-03-26T03:29:08.174Z,5.07
2018-03-26T03:30:08.170Z,4.94
2018-03-26T03:31:08.165Z,4.86
2018-03-26T03:32:08.195Z,4.92
2018-03-26T03:33:08.155Z,4.87
2018-03-26T03:34:08.150Z,4.86
2018-03-26T03:35:08.144Z,4.94
2018-03-26T03:36:08.140Z,4.83
2018-03-26T03:37:08.135Z,4.90
2018-03-26T03:38:08.130Z,4.87
2018-03-26T03:39:08.125Z,4.87
2018-03-26T03:40:08.119Z,4.84
2018-03-26T03:41:08.115Z,4.78
2018-03-26T03:42:08.109Z,4.71
2018-03-26T03:43:08.106Z,4.68
2018-03-26T03:44:08.098Z,4.63
2018-03-26T03:45:08.093Z,4.58
2018-03-26T03:46:08.089Z,4.52
2018-03-26T03:47:08.085Z,4.38
2018-03-26T03:48:08.078Z,4.27
2018-03-26T03:49:08.075Z,4.25
2018-03-26T03:50:08.069Z,4.20
2018-03-26T03:51:08.065Z,4.16
2018-03-26T03:52:08.058Z,4.25
2018-03-26T03:53:08.055Z,4.42
2018-03-26T03:54:08.049Z,4.39
2018-03-26T03:55:08.044Z,4.58
2018-03-26T03:56:08.037Z,4.52
2018-03-26T03:57:08.033Z,4.56
2018-03-26T03:58:08.026Z,4.58
2018-03-26T03:59:08.021Z,4.56
2018-03-26T04:00:08.042Z,4.50
2018-03-26T04:01:08.012Z,4.63
2018-03-26T04:02:08.006Z,4.57
2018-03-26T04:03:08.004Z,4.57
2018-03-26T04:04:07.996Z,4.50
2018-03-26T04:05:07.990Z,4.63
2018-03-26T04:06:07.986Z,4.58
2018-03-26T04:07:07.988Z,4.53
2018-03-26T04:08:07.975Z,4.49
2018-03-26T04:09:07.972Z,4.50
2018-03-26T04:10:07.969Z,4.53
2018-03-26T04:11:07.960Z,4.48
2018-03-26T04:12:07.955Z,4.53
2018-03-26T04:13:07.949Z,4.43
2018-03-26T04:14:07.945Z,4.53
2018-03-26T04:15:07.941Z,4.53
2018-03-26T04:16:07.935Z,4.57
2018-03-26T04:17:07.930Z,4.61
2018-03-26T04:18:07.926Z,4.58
2018-03-26T04:19:07.920Z,4.50
2018-03-26T04:20:07.915Z,4.56
2018-03-26T04:21:07.910Z,4.48
2018-03-26T04:22:07.906Z,4.48
2018-03-26T04:23:07.900Z,4.46
2018-03-26T04:24:07.894Z,4.57
2018-03-26T04:25:07.899Z,4.53
2018-03-26T04:26:07.885Z,4.49
2018-03-26T04:27:07.880Z,4.49
2018-03-26T04:28:07.877Z,4.46
2018-03-26T04:29:07.869Z,4.49
2018-03-26T04:30:07.865Z,4.40
2018-03-26T04:31:07.859Z,4.27
2018-03-26T04:32:07.889Z,4.28
2018-03-26T04:33:07.849Z,4.25
2018-03-26T04:34:07.844Z,4.31
2018-03-26T04:35:07.839Z,4.28
2018-03-26T04:36:07.833Z,4.31
2018-03-26T04:37:07.827Z,4.28
2018-03-26T04:38:07.823Z,4.16
2018-03-26T04:39:07.835Z,4.18
2018-03-26T04:40:07.813Z,4.21
2018-03-26T04:41:07.807Z,4.16
2018-03-26T04:42:07.804Z,4.16
2018-03-26T04:43:07.829Z,4.18
2018-03-26T04:44:07.792Z,4.16
2018-03-26T04:45:07.787Z,4.28
2018-03-26T04:46:07.785Z,4.22
2018-03-26T04:47:07.783Z,4.22
2018-03-26T04:48:07.770Z,4.30
2018-03-26T04:49:07.766Z,4.21
2018-03-26T04:50:07.761Z,4.30
2018-03-26T04:51:07.756Z,4.27
2018-03-26T04:52:07.804Z,4.30
2018-03-26T04:53:07.744Z,4.46
2018-03-26T04:54:07.741Z,4.48
2018-03-26T04:55:07.735Z,4.57
2018-03-26T04:56:07.729Z,4.52
2018-03-26T04:57:07.728Z,4.53
2018-03-26T04:58:07.719Z,4.63
2018-03-26T04:59:07.714Z,4.67
2018-03-26T05:00:07.709Z,4.61
2018-03-26T05:01:07.704Z,4.71
2018-03-26T05:02:07.699Z,4.66
2018-03-26T05:03:07.692Z,4.71
2018-03-26T05:04:07.687Z,4.56
2018-03-26T05:05:07.684Z,4.56
2018-03-26T05:06:07.681Z,4.63
2018-03-26T05:07:07.676Z,4.71
2018-03-26T05:08:07.669Z,4.67
2018-03-26T05:09:07.662Z,4.74
2018-03-26T05:10:07.657Z,4.79
2018-03-26T05:11:07.651Z,4.87
2018-03-26T05:12:07.646Z,4.86
2018-03-26T05:13:07.641Z,4.92
2018-03-26T05:14:07.636Z,4.83
2018-03-26T05:15:07.631Z,4.97
2018-03-26T05:16:07.625Z,5.05
2018-03-26T05:17:07.620Z,5.04
2018-03-26T05:18:07.616Z,4.97
2018-03-26T05:19:07.610Z,4.98
2018-03-26T05:20:07.604Z,4.98
2018-03-26T05:21:07.599Z,4.94
2018-03-26T05:22:07.596Z,5.00
2018-03-26T05:23:07.591Z,5.08
2018-03-26T05:24:07.585Z,4.97
2018-03-26T05:25:07.581Z,5.07
2018-03-26T05:26:07.576Z,5.00
2018-03-26T05:27:07.580Z,5.00
2018-03-26T05:28:07.565Z,4.97
2018-03-26T05:29:07.561Z,4.86
2018-03-26T05:30:07.556Z,4.84
2018-03-26T05:31:07.554Z,4.84
2018-03-26T05:32:07.544Z,4.84
2018-03-26T05:33:07.542Z,4.63
2018-03-26T05:34:07.537Z,4.63
2018-03-26T05:35:07.531Z,4.53
2018-03-26T05:36:07.524Z,4.58
2018-03-26T05:37:07.521Z,4.48
2018-03-26T05:38:07.516Z,4.50
2018-03-26T05:39:07.511Z,4.45
2018-03-26T05:40:07.505Z,4.45
2018-03-26T05:41:07.500Z,4.58
2018-03-26T05:42:07.496Z,4.57
2018-03-26T05:43:07.491Z,4.57
2018-03-26T05:44:07.489Z,4.57
2018-03-26T05:45:07.480Z,4.57
2018-03-26T05:46:07.476Z,4.48
2018-03-26T05:47:07.470Z,4.49
2018-03-26T05:48:07.518Z,4.46
2018-03-26T05:49:07.460Z,4.42
2018-03-26T05:50:07.454Z,4.45
2018-03-26T05:51:07.449Z,4.49
2018-03-26T05:52:07.444Z,4.60
2018-03-26T05:53:07.438Z,4.68
2018-03-26T05:54:07.434Z,4.71
2018-03-26T05:55:07.431Z,4.78
2018-03-26T05:56:07.422Z,4.83
2018-03-26T05:57:07.417Z,4.83
2018-03-26T05:58:07.413Z,4.82
2018-03-26T05:59:07.412Z,4.86
2018-03-26T06:00:07.403Z,4.92
2018-03-26T06:01:07.399Z,4.84
2018-03-26T06:02:07.435Z,4.84
2018-03-26T06:03:07.389Z,4.89
2018-03-26T06:04:07.382Z,4.95
2018-03-26T06:05:07.378Z,4.86
2018-03-26T06:06:07.373Z,4.87
2018-03-26T06:07:07.368Z,4.95
2018-03-26T06:08:07.364Z,4.89
2018-03-26T06:09:07.358Z,4.86
2018-03-26T06:10:07.354Z,4.97
2018-03-26T06:11:07.348Z,4.90
2018-03-26T06:12:07.343Z,4.97
2018-03-26T06:13:07.342Z,5.00
2018-03-26T06:14:07.334Z,5.02
2018-03-26T06:15:07.332Z,5.08
2018-03-26T06:16:07.323Z,5.10
2018-03-26T06:17:07.319Z,5.08
2018-03-26T06:18:07.314Z,5.04
2018-03-26T06:19:07.317Z,5.04
2018-03-26T06:20:07.306Z,5.02
2018-03-26T06:21:07.304Z,4.95
2018-03-26T06:22:07.294Z,4.83
2018-03-26T06:23:07.290Z,4.84
2018-03-26T06:24:07.286Z,4.86
2018-03-26T06:25:07.281Z,4.84
2018-03-26T06:26:07.276Z,4.98
2018-03-26T06:27:07.277Z,4.97
2018-03-26T06:28:07.267Z,5.01
2018-03-26T06:29:07.261Z,5.05
2018-03-26T06:30:07.264Z,5.08
2018-03-26T06:31:07.470Z,5.23
2018-03-26T06:32:07.245Z,5.20
2018-03-26T06:33:07.241Z,5.18
2018-03-26T06:34:07.237Z,5.36
2018-03-26T06:35:07.233Z,5.29
2018-03-26T06:36:07.226Z,5.36
2018-03-26T06:37:07.222Z,5.43
2018-03-26T06:38:07.219Z,5.38
2018-03-26T06:39:07.214Z,5.43
2018-03-26T06:40:07.208Z,5.44
2018-03-26T06:41:07.204Z,5.44
2018-03-26T06:42:07.200Z,5.40
2018-03-26T06:43:07.215Z,5.43
2018-03-26T06:44:07.208Z,5.41
2018-03-26T06:45:07.185Z,5.34
2018-03-26T06:46:07.181Z,5.34
2018-03-26T06:47:07.175Z,5.23
2018-03-26T06:48:07.171Z,5.18
2018-03-26T06:49:07.166Z,5.19
2018-03-26T06:50:07.161Z,5.15
2018-03-26T06:51:07.157Z,5.15
2018-03-26T06:52:07.151Z,5.18
2018-03-26T06:53:07.147Z,5.08
2018-03-26T06:54:07.142Z,5.01
2018-03-26T06:55:07.138Z,5.04
2018-03-26T06:56:07.132Z,5.10
2018-03-26T06:57:07.129Z,5.15
2018-03-26T06:58:07.125Z,5.15
2018-03-26T06:59:07.158Z,5.15
2018-03-26T07:00:07.113Z,5.19
2018-03-26T07:01:07.110Z,5.26
2018-03-26T07:02:07.106Z,5.23
2018-03-26T07:03:07.101Z,5.16
2018-03-26T07:04:07.096Z,5.26
2018-03-26T07:05:07.091Z,5.29
2018-03-26T07:06:07.086Z,5.29
2018-03-26T07:07:07.081Z,5.29
2018-03-26T07:08:07.075Z,5.29
2018-03-26T07:09:07.075Z,5.31
2018-03-26T07:10:07.066Z,5.28
2018-03-26T07:11:07.063Z,5.25
2018-03-26T07:12:07.057Z,5.29
2018-03-26T07:13:07.055Z,5.34
2018-03-26T07:14:07.050Z,5.38
2018-03-26T07:15:07.044Z,5.38
2018-03-26T07:16:07.040Z,5.31
2018-03-26T07:17:07.034Z,5.38
2018-03-26T07:18:07.030Z,5.34
2018-03-26T07:19:07.024Z,5.37
2018-03-26T07:20:07.024Z,5.29
2018-03-26T07:21:07.016Z,5.28
2018-03-26T07:22:07.013Z,5.41
2018-03-26T07:23:07.008Z,5.44
2018-03-26T07:24:07.003Z,5.43
2018-03-26T07:25:06.997Z,5.44
2018-03-26T07:26:06.993Z,5.37
2018-03-26T07:27:06.988Z,5.37
2018-03-26T07:28:06.983Z,5.31
2018-03-26T07:29:06.980Z,5.38
2018-03-26T07:30:06.976Z,5.47
2018-03-26T07:31:06.972Z,5.47
2018-03-26T07:32:06.966Z,5.55
2018-03-26T07:33:06.962Z,5.54
2018-03-26T07:34:06.957Z,5.59
2018-03-26T07:35:06.952Z,5.56
2018-03-26T07:36:06.949Z,5.56
2018-03-26T07:37:06.945Z,5.54
2018-03-26T07:38:06.940Z,5.52
2018-03-26T07:39:06.934Z,5.47
2018-03-26T07:40:06.930Z,5.37
2018-03-26T07:41:06.953Z,5.25
2018-03-26T07:42:06.924Z,5.15
2018-03-26T07:43:06.917Z,5.15
2018-03-26T07:44:06.918Z,5.23
2018-03-26T07:45:06.909Z,5.20
2018-03-26T07:46:06.904Z,5.33
2018-03-26T07:47:07.216Z,5.25
2018-03-26T07:48:06.900Z,5.40
2018-03-26T07:49:06.890Z,5.36
2018-03-26T07:50:06.886Z,5.43
2018-03-26T07:51:06.881Z,5.33
2018-03-26T07:52:06.876Z,5.37
2018-03-26T07:53:06.872Z,5.28
2018-03-26T07:54:06.868Z,5.38
2018-03-26T07:55:06.864Z,5.37
2018-03-26T07:56:06.857Z,5.44
2018-03-26T07:57:06.854Z,5.41
2018-03-26T07:58:06.848Z,5.41
2018-03-26T07:59:06.844Z,5.47
2018-03-26T08:00:06.842Z,5.55
2018-03-26T08:01:06.836Z,5.49
2018-03-26T08:02:06.832Z,5.47
2018-03-26T08:03:06.832Z,5.44
2018-03-26T08:04:06.822Z,5.52
2018-03-26T08:05:06.819Z,5.44
2018-03-26T08:06:06.814Z,5.46
2018-03-26T08:07:06.809Z,5.46
2018-03-26T08:08:06.805Z,5.37
2018-03-26T08:09:06.799Z,5.31
2018-03-26T08:10:06.796Z,5.26
2018-03-26T08:11:06.792Z,5.28
2018-03-26T08:12:06.785Z,5.33
2018-03-26T08:13:06.782Z,5.43
2018-03-26T08:14:06.777Z,5.54
2018-03-26T08:15:06.774Z,5.62
2018-03-26T08:16:06.767Z,5.59
2018-03-26T08:17:06.779Z,5.58
2018-03-26T08:18:06.761Z,5.67
2018-03-26T08:19:06.754Z,5.70
2018-03-26T08:20:06.750Z,5.72
2018-03-26T08:21:06.746Z,5.72
2018-03-26T08:22:06.742Z,5.80
2018-03-26T08:23:06.738Z,5.80
2018-03-26T08:24:06.733Z,5.81
2018-03-26T08:25:06.732Z,5.80
2018-03-26T08:26:06.724Z,5.84
2018-03-26T08:27:06.721Z,5.88
2018-03-26T08:28:06.714Z,5.90
2018-03-26T08:29:07.034Z,5.92
2018-03-26T08:30:06.705Z,6.05
2018-03-26T08:31:06.702Z,6.01
2018-03-26T08:32:06.697Z,5.90
2018-03-26T08:33:06.695Z,5.90
2018-03-26T08:34:06.689Z,5.95
2018-03-26T08:35:06.686Z,5.98
2018-03-26T08:36:06.679Z,5.97
2018-03-26T08:37:06.675Z,6.01
2018-03-26T08:38:06.672Z,6.01
2018-03-26T08:39:06.673Z,5.97
2018-03-26T08:40:06.663Z,5.98
2018-03-26T08:41:06.660Z,6.01
2018-03-26T08:42:06.655Z,5.94
2018-03-26T08:43:06.651Z,5.87
2018-03-26T08:44:06.646Z,5.94
2018-03-26T08:45:06.641Z,5.94
2018-03-26T08:46:06.640Z,5.97
2018-03-26T08:47:06.635Z,6.10
2018-03-26T08:48:06.636Z,6.07
2018-03-26T08:49:06.955Z,6.06
2018-03-26T08:50:06.668Z,6.05
2018-03-26T08:51:06.619Z,5.98
2018-03-26T08:52:06.613Z,6.10
2018-03-26T08:53:06.610Z,6.16
2018-03-26T08:54:06.606Z,6.16
2018-03-26T08:55:06.603Z,6.20
2018-03-26T08:56:06.598Z,6.28
2018-03-26T08:57:06.593Z,6.35
2018-03-26T08:58:06.589Z,6.28
2018-03-26T08:59:06.586Z,6.34
2018-03-26T09:00:06.581Z,6.39
2018-03-26T09:01:06.578Z,6.35
2018-03-26T09:02:06.574Z,6.39
2018-03-26T09:03:06.573Z,6.32
2018-03-26T09:04:06.565Z,6.34
2018-03-26T09:05:06.565Z,6.34
2018-03-26T09:06:06.558Z,6.36
2018-03-26T09:07:06.554Z,6.25
2018-03-26T09:08:06.550Z,6.35
2018-03-26T09:09:06.544Z,6.34
2018-03-26T09:10:06.541Z,6.34
2018-03-26T09:11:06.538Z,6.38
2018-03-26T09:12:06.537Z,6.38
2018-03-26T09:13:06.528Z,6.35
2018-03-26T09:14:06.527Z,6.34
2018-03-26T09:15:06.522Z,6.19
2018-03-26T09:16:06.525Z,6.12
2018-03-26T09:17:06.538Z,6.01
2018-03-26T09:18:06.510Z,6.10
2018-03-26T09:19:06.507Z,6.17
2018-03-26T09:20:06.502Z,6.19
2018-03-26T09:21:06.499Z,6.29
2018-03-26T09:22:06.494Z,6.31
2018-03-26T09:23:06.491Z,6.38
2018-03-26T09:24:06.486Z,6.44
2018-03-26T09:25:06.485Z,6.44
2018-03-26T09:26:06.521Z,6.54
2018-03-26T09:27:06.478Z,6.60
2018-03-26T09:28:06.471Z,6.70
2018-03-26T09:29:06.467Z,6.68
2018-03-26T09:30:06.464Z,6.70
2018-03-26T09:31:06.459Z,6.72
2018-03-26T09:32:06.456Z,6.77
2018-03-26T09:33:06.451Z,6.67
2018-03-26T09:34:06.451Z,6.74
2018-03-26T09:35:06.446Z,6.93
2018-03-26T09:36:06.441Z,6.90
2018-03-26T09:37:06.440Z,7.00
2018-03-26T09:38:06.434Z,6.97
2018-03-26T09:39:06.431Z,7.04
2018-03-26T09:40:06.426Z,6.95
2018-03-26T09:41:06.427Z,6.87
2018-03-26T09:42:06.420Z,6.83
2018-03-26T09:43:06.417Z,6.85
2018-03-26T09:44:06.412Z,6.85
2018-03-26T09:45:06.409Z,6.90
2018-03-26T09:46:06.406Z,6.87
2018-03-26T09:47:06.401Z,6.71
2018-03-26T09:48:06.398Z,6.59
2018-03-26T09:49:06.399Z,6.70
2018-03-26T09:50:06.392Z,6.74
2018-03-26T09:51:06.388Z,6.75
2018-03-26T09:52:06.382Z,6.74
2018-03-26T09:53:06.381Z,6.67
2018-03-26T09:54:06.377Z,6.72
2018-03-26T09:55:06.376Z,6.74
2018-03-26T09:56:06.371Z,6.56
2018-03-26T09:57:06.367Z,6.71
2018-03-26T09:58:06.363Z,6.75
2018-03-26T09:59:06.360Z,6.72
2018-03-26T10:00:06.358Z,6.80
2018-03-26T10:01:06.356Z,6.80
2018-03-26T10:02:06.351Z,6.93
2018-03-26T10:03:06.346Z,7.01
2018-03-26T10:04:06.347Z,6.96
2018-03-26T10:05:06.338Z,6.95
2018-03-26T10:06:06.337Z,6.77
2018-03-26T10:07:06.332Z,6.83
2018-03-26T10:08:06.329Z,6.71
2018-03-26T10:09:06.326Z,6.75
2018-03-26T10:10:06.323Z,6.85
2018-03-26T10:11:06.318Z,6.83
2018-03-26T10:12:06.317Z,6.83
2018-03-26T10:13:06.312Z,6.80
2018-03-26T10:14:06.312Z,6.93
2018-03-26T10:15:06.306Z,6.89
2018-03-26T10:16:06.301Z,7.00
2018-03-26T10:17:06.299Z,7.03
2018-03-26T10:18:06.296Z,7.14
2018-03-26T10:19:06.291Z,7.23
2018-03-26T10:20:06.802Z,7.22
2018-03-26T10:21:06.288Z,7.28
2018-03-26T10:22:06.283Z,7.25
2018-03-26T10:23:06.278Z,7.15
2018-03-26T10:24:06.274Z,7.15
2018-03-26T10:25:06.271Z,7.08
2018-03-26T10:26:06.272Z,7.19
2018-03-26T10:27:06.268Z,7.22
2018-03-26T10:28:06.265Z,7.23
2018-03-26T10:29:06.259Z,7.32
2018-03-26T10:30:06.256Z,7.31
2018-03-26T10:31:06.253Z,7.33
2018-03-26T10:32:06.250Z,7.41
2018-03-26T10:33:06.247Z,7.39
2018-03-26T10:34:06.244Z,7.40
2018-03-26T10:35:06.240Z,7.40
2018-03-26T10:36:06.236Z,7.47
2018-03-26T10:37:06.233Z,7.59
2018-03-26T10:38:06.233Z,7.61
2018-03-26T10:39:06.228Z,7.61
2018-03-26T10:40:06.225Z,7.67
2018-03-26T10:41:06.222Z,7.69
2018-03-26T10:42:06.219Z,7.85
2018-03-26T10:43:06.217Z,7.87
2018-03-26T10:44:06.216Z,7.93
2018-03-26T10:45:06.211Z,8.06
2018-03-26T10:46:06.208Z,8.09
2018-03-26T10:47:06.207Z,8.13
2018-03-26T10:48:06.202Z,8.08
2018-03-26T10:49:06.200Z,8.16
2018-03-26T10:50:06.198Z,8.18
2018-03-26T10:51:06.234Z,8.17
2018-03-26T10:52:06.192Z,8.32
2018-03-26T10:53:06.190Z,8.36
2018-03-26T10:54:06.191Z,8.57
2018-03-26T10:55:06.186Z,8.45
2018-03-26T10:56:06.182Z,8.64
2018-03-26T10:57:06.180Z,8.74
2018-03-26T10:58:06.178Z,8.79
2018-03-26T10:59:06.176Z,8.84
2018-03-26T11:00:06.173Z,8.84
2018-03-26T11:01:06.173Z,8.84
2018-03-26T11:02:06.170Z,8.96
2018-03-26T11:03:06.171Z,9.09
2018-03-26T11:04:06.166Z,9.02
2018-03-26T11:05:06.165Z,8.93
2018-03-26T11:06:06.163Z,8.97
2018-03-26T11:07:06.160Z,9.02
2018-03-26T11:08:06.159Z,9.11
2018-03-26T11:09:06.157Z,9.16
2018-03-26T11:10:06.156Z,9.30
2018-03-26T11:11:06.217Z,9.31
2018-03-26T11:12:06.152Z,9.31
2018-03-26T11:13:06.150Z,9.11
2018-03-26T11:14:06.149Z,9.00
2018-03-26T11:15:06.148Z,8.92
2018-03-26T11:16:06.144Z,8.89
2018-03-26T11:17:06.148Z,8.84
2018-03-26T11:18:06.140Z,8.92
2018-03-26T11:19:06.140Z,9.00
2018-03-26T11:20:06.138Z,8.97
2018-03-26T11:21:06.137Z,9.08
2018-03-26T11:22:06.135Z,8.93
2018-03-26T11:23:06.133Z,9.00
2018-03-26T11:24:06.131Z,9.02
2018-03-26T11:25:06.132Z,8.97
2018-03-26T11:26:06.126Z,8.82
2018-03-26T11:27:06.126Z,8.79
2018-03-26T11:28:06.134Z,8.74
2018-03-26T11:29:06.122Z,8.84
2018-03-26T11:30:06.122Z,8.86
2018-03-26T11:31:06.118Z,8.92
2018-03-26T11:32:06.117Z,8.90
2018-03-26T11:33:06.115Z,8.84
2018-03-26T11:34:06.112Z,8.87
2018-03-26T11:35:06.110Z,8.82
2018-03-26T11:36:06.110Z,8.97
2018-03-26T11:37:06.108Z,9.02
2018-03-26T11:38:06.106Z,8.95
2018-03-26T11:39:06.104Z,8.92
2018-03-26T11:40:06.101Z,8.74
2018-03-26T11:41:06.409Z,8.74
2018-03-26T11:42:06.101Z,8.86
2018-03-26T11:43:06.094Z,8.79
2018-03-26T11:44:06.093Z,8.96
2018-03-26T11:45:06.092Z,9.03
2018-03-26T11:46:06.090Z,9.09
2018-03-26T11:47:06.086Z,9.03
2018-03-26T11:48:06.263Z,9.15
2018-03-26T11:49:06.083Z,9.33
2018-03-26T11:50:06.080Z,9.29
2018-03-26T11:51:06.079Z,9.30
2018-03-26T11:52:06.076Z,9.34
2018-03-26T11:53:06.073Z,9.34
2018-03-26T11:54:06.072Z,9.34
2018-03-26T11:55:06.070Z,9.36
2018-03-26T11:56:06.072Z,9.48
2018-03-26T11:57:06.066Z,9.39
2018-03-26T11:58:06.065Z,9.37
2018-03-26T11:59:06.063Z,9.39
2018-03-26T12:00:06.061Z,9.30
2018-03-26T12:01:06.060Z,9.12
2018-03-26T12:02:06.114Z,9.26
2018-03-26T12:03:06.058Z,9.29
2018-03-26T12:04:06.054Z,9.34
2018-03-26T12:05:06.052Z,9.34
2018-03-26T12:06:06.049Z,9.36
2018-03-26T12:07:06.049Z,9.40
2018-03-26T12:08:06.047Z,9.36
2018-03-26T12:09:06.046Z,9.36
2018-03-26T12:10:06.047Z,9.30
2018-03-26T12:11:06.041Z,9.26
2018-03-26T12:12:06.040Z,9.33
2018-03-26T12:13:06.044Z,9.18
2018-03-26T12:14:06.043Z,9.22
2018-03-26T12:15:06.033Z,9.13
2018-03-26T12:16:06.031Z,9.29
2018-03-26T12:17:06.035Z,9.26
2018-03-26T12:18:06.029Z,9.29
2018-03-26T12:19:06.025Z,9.30
2018-03-26T12:20:06.024Z,9.29
2018-03-26T12:21:06.021Z,9.29
2018-03-26T12:22:06.018Z,9.36
2018-03-26T12:23:06.018Z,9.33
2018-03-26T12:24:06.015Z,9.42
2018-03-26T12:25:06.013Z,9.37
2018-03-26T12:26:06.012Z,9.37
2018-03-26T12:27:06.015Z,9.39
2018-03-26T12:28:06.021Z,9.36
2018-03-26T12:29:06.005Z,9.37
2018-03-26T12:30:06.003Z,9.34
2018-03-26T12:31:06.003Z,9.47
2018-03-26T12:32:06.002Z,9.36
2018-03-26T12:33:05.998Z,9.49
2018-03-26T12:34:05.996Z,9.54
2018-03-26T12:35:06.424Z,9.44
2018-03-26T12:36:05.992Z,9.33
2018-03-26T12:37:05.990Z,9.26
2018-03-26T12:38:05.987Z,9.30
2018-03-26T12:39:05.986Z,9.26
2018-03-26T12:40:05.984Z,9.34
2018-03-26T12:41:05.983Z,9.37
2018-03-26T12:42:05.981Z,9.36
2018-03-26T12:43:05.980Z,9.31
2018-03-26T12:44:05.977Z,9.44
2018-03-26T12:45:05.985Z,9.45
2018-03-26T12:46:05.972Z,9.39
2018-03-26T12:47:05.971Z,9.36
2018-03-26T12:48:05.968Z,9.29
2018-03-26T12:49:05.967Z,9.24
2018-03-26T12:50:05.965Z,9.11
2018-03-26T12:51:05.966Z,9.05
2018-03-26T12:52:05.961Z,9.03
2018-03-26T12:53:05.957Z,9.02
2018-03-26T12:54:05.956Z,9.03
2018-03-26T12:55:05.954Z,8.95
2018-03-26T12:56:05.952Z,8.87
2018-03-26T12:57:05.950Z,8.79
2018-03-26T12:58:05.947Z,8.74
2018-03-26T12:59:05.944Z,8.84
2018-03-26T13:00:05.985Z,8.74
2018-03-26T13:01:05.940Z,8.75
2018-03-26T13:02:05.938Z,8.78
2018-03-26T13:03:05.937Z,8.74
2018-03-26T13:04:05.931Z,8.82
2018-03-26T13:05:05.929Z,8.97
2018-03-26T13:06:05.927Z,9.00
2018-03-26T13:07:05.925Z,9.00
2018-03-26T13:08:05.921Z,9.12
2018-03-26T13:09:05.920Z,9.11
2018-03-26T13:10:05.917Z,9.08
2018-03-26T13:11:05.915Z,9.21
2018-03-26T13:12:05.912Z,9.13
2018-03-26T13:13:05.910Z,9.09
2018-03-26T13:14:05.908Z,9.13
2018-03-26T13:15:05.938Z,9.09
2018-03-26T13:16:05.904Z,9.03
2018-03-26T13:17:05.900Z,8.95
2018-03-26T13:18:05.898Z,9.09